Airfield :
LOGIN :

Register | Disclaimer

   EN    FR    IT 

 










Legend :    VFR   Marginal VFR   IFR   Intensive IFR   Very Intensive IFR
Visi :
Ceiling :
>= 8 km
>= 3000ft
5 to 8 km
1000 to 3000 ft
1500m to 5 km
500 to 1000 ft
800 to 1500m
200 to 500 ft
< 800m
< 200 ft
Symbols :   Thunderstorms  Fog  Heavy snow  Heavy precipitations  Wind > 20 kt
SIGMETs :     Misc.  Thunderstorms  Icing  Turbulence  Mountain Waves  Volcanic Ashes







- Airport Elevation : 5600 ft
- IATA code : SMV


LSZS - Samedan

CURRENT METAR :
  • 290350Z AUTO 00000KT 9999 SCT021 BKN028 08/07 Q1025

EXPIRED METARs :
  • 290320Z AUTO 21002KT 9999 BKN021 BKN028 08/07 Q1025
  • 290250Z AUTO 19003KT 9999 BKN023 07/06 Q1025
  • 290220Z AUTO 00000KT 9999 BKN020 07/06 Q1026
  • 290150Z AUTO VRB01KT 6000 BKN019 06/05 Q1026
  • 290120Z AUTO 00000KT 6000 NCD 06/05 Q1026

Expired Forecast.
ATIS : +41 81 834 93 24
No reported NOTAMs for that airfield.



MET'MAP, your aeronautical weather chart ! - Copyright ORBIFLY December 2007 - Disclaimer

ORBIFLY MET'MAP TEAM :

Programming & Development : Alexandra Zaïnal
Concept & Development : Baudouin d'Aumeries
Co-Development & Prog : Marc-Olivier Méhu
Technical & hardware support : Manuel Goepfert

Contact : metmap@orbifly.com




SOURCES & CREDITS :

   NOAA